Camp Sherman, Oregon
Current Conditions -  °F | °C
As of 8:56 AM on Friday 24 Oct 2014 (Local Time) from KRDM Reporting Station
Light Rain Light Rain  
Wind Chill: 46°   Ceiling: 4800
Heat Index: 46°   Visibility: 10mi
Dew Point: 43°   Wind: 0mph
Humidity: 89%   Direction: NA
Pressure: 30.04"   Gusts: NA
Location:  44.46°N, 121.64°W
Report Text: KRDM 241556Z 00000KT 10SM -RA BKN048 OVC060 08/06 A3004 RMK AO2 SLP173 P0000 T00780061
Loading
Personal Weather Stations






























Interactive Weather Map
Tropical Storm Tracking
New forecast layout! Learn more

10-Day Weather Forecast

Advertisements
Track Severe Weather on mobile